sensor_id;sensor_type;location;lat;lon;timestamp;P1;durP1;ratioP1;P2;durP2;ratioP2
17927;SDS011;9089;58.396;15.544;2022-11-04T00:01:05;12.40;;;4.60;;
17927;SDS011;9089;58.396;15.544;2022-11-04T00:03:30;10.82;;;5.20;;
17927;SDS011;9089;58.396;15.544;2022-11-04T00:05:59;12.20;;;4.97;;
17927;SDS011;9089;58.396;15.544;2022-11-04T00:08:24;9.63;;;4.10;;
17927;SDS011;9089;58.396;15.544;2022-11-04T00:10:52;10.40;;;4.30;;
17927;SDS011;9089;58.396;15.544;2022-11-04T00:13:37;12.05;;;4.47;;
17927;SDS011;9089;58.396;15.544;2022-11-04T00:16:04;10.32;;;4.53;;
17927;SDS011;9089;58.396;15.544;2022-11-04T00:18:48;10.00;;;3.80;;
17927;SDS011;9089;58.396;15.544;2022-11-04T00:21:14;9.85;;;4.10;;
17927;SDS011;9089;58.396;15.544;2022-11-04T00:23:57;10.82;;;5.03;;
17927;SDS011;9089;58.396;15.544;2022-11-04T00:26:42;9.55;;;4.65;;
17927;SDS011;9089;58.396;15.544;2022-11-04T00:29:27;9.32;;;4.68;;
17927;SDS011;9089;58.396;15.544;2022-11-04T00:31:53;9.32;;;4.90;;
17927;SDS011;9089;58.396;15.544;2022-11-04T00:34:39;15.35;;;5.10;;
17927;SDS011;9089;58.396;15.544;2022-11-04T00:37:04;12.25;;;5.35;;
17927;SDS011;9089;58.396;15.544;2022-11-04T00:39:30;19.10;;;5.30;;
17927;SDS011;9089;58.396;15.544;2022-11-04T00:41:56;11.13;;;4.93;;
17927;SDS011;9089;58.396;15.544;2022-11-04T00:44:21;14.75;;;5.60;;
17927;SDS011;9089;58.396;15.544;2022-11-04T00:46:47;8.90;;;5.22;;
17927;SDS011;9089;58.396;15.544;2022-11-04T00:49:14;7.70;;;4.95;;
17927;SDS011;9089;58.396;15.544;2022-11-04T00:51:39;10.95;;;5.03;;
17927;SDS011;9089;58.396;15.544;2022-11-04T00:54:05;13.45;;;5.35;;
17927;SDS011;9089;58.396;15.544;2022-11-04T00:56:30;8.40;;;5.40;;
17927;SDS011;9089;58.396;15.544;2022-11-04T00:58:57;9.88;;;5.85;;
17927;SDS011;9089;58.396;15.544;2022-11-04T01:01:23;11.30;;;5.57;;
17927;SDS011;9089;58.396;15.544;2022-11-04T01:03:50;8.65;;;5.05;;
17927;SDS011;9089;58.396;15.544;2022-11-04T01:06:18;10.38;;;4.72;;
17927;SDS011;9089;58.396;15.544;2022-11-04T01:08:43;13.32;;;5.80;;
17927;SDS011;9089;58.396;15.544;2022-11-04T01:11:09;9.55;;;4.88;;
17927;SDS011;9089;58.396;15.544;2022-11-04T01:13:34;10.05;;;5.40;;
17927;SDS011;9089;58.396;15.544;2022-11-04T01:16:00;14.63;;;5.60;;
17927;SDS011;9089;58.396;15.544;2022-11-04T01:18:27;10.50;;;4.72;;
17927;SDS011;9089;58.396;15.544;2022-11-04T01:20:52;8.40;;;4.72;;
17927;SDS011;9089;58.396;15.544;2022-11-04T01:23:19;9.25;;;5.40;;
17927;SDS011;9089;58.396;15.544;2022-11-04T01:25:45;10.18;;;4.93;;
17927;SDS011;9089;58.396;15.544;2022-11-04T01:28:10;15.95;;;6.05;;
17927;SDS011;9089;58.396;15.544;2022-11-04T01:30:36;10.82;;;4.95;;
17927;SDS011;9089;58.396;15.544;2022-11-04T01:33:02;12.30;;;5.03;;
17927;SDS011;9089;58.396;15.544;2022-11-04T01:35:27;9.15;;;4.78;;
17927;SDS011;9089;58.396;15.544;2022-11-04T01:37:53;10.35;;;4.70;;
17927;SDS011;9089;58.396;15.544;2022-11-04T01:40:20;11.18;;;5.07;;
17927;SDS011;9089;58.396;15.544;2022-11-04T01:42:45;12.55;;;6.07;;
17927;SDS011;9089;58.396;15.544;2022-11-04T01:45:11;9.63;;;4.63;;
17927;SDS011;9089;58.396;15.544;2022-11-04T01:47:38;15.32;;;6.07;;
17927;SDS011;9089;58.396;15.544;2022-11-04T01:50:06;12.50;;;5.47;;
17927;SDS011;9089;58.396;15.544;2022-11-04T01:52:34;7.75;;;4.97;;
17927;SDS011;9089;58.396;15.544;2022-11-04T01:55:02;13.80;;;5.03;;
17927;SDS011;9089;58.396;15.544;2022-11-04T01:57:31;13.23;;;5.03;;
17927;SDS011;9089;58.396;15.544;2022-11-04T01:59:58;6.80;;;3.88;;
17927;SDS011;9089;58.396;15.544;2022-11-04T02:02:25;12.98;;;4.45;;
17927;SDS011;9089;58.396;15.544;2022-11-04T02:04:51;7.97;;;3.97;;
17927;SDS011;9089;58.396;15.544;2022-11-04T02:07:16;11.10;;;4.35;;
17927;SDS011;9089;58.396;15.544;2022-11-04T02:09:42;12.73;;;4.15;;
17927;SDS011;9089;58.396;15.544;2022-11-04T02:12:08;8.93;;;4.40;;
17927;SDS011;9089;58.396;15.544;2022-11-04T02:14:54;10.52;;;4.28;;
17927;SDS011;9089;58.396;15.544;2022-11-04T02:17:24;9.45;;;4.38;;
17927;SDS011;9089;58.396;15.544;2022-11-04T02:19:58;6.03;;;4.40;;
17927;SDS011;9089;58.396;15.544;2022-11-04T02:22:30;8.75;;;4.03;;
17927;SDS011;9089;58.396;15.544;2022-11-04T02:25:05;9.18;;;3.90;;
17927;SDS011;9089;58.396;15.544;2022-11-04T02:27:43;13.20;;;4.63;;
17927;SDS011;9089;58.396;15.544;2022-11-04T02:30:14;8.57;;;4.40;;
17927;SDS011;9089;58.396;15.544;2022-11-04T02:32:41;10.88;;;4.32;;
17927;SDS011;9089;58.396;15.544;2022-11-04T02:35:10;9.07;;;3.90;;
17927;SDS011;9089;58.396;15.544;2022-11-04T02:37:38;7.95;;;4.35;;
17927;SDS011;9089;58.396;15.544;2022-11-04T02:40:09;5.15;;;3.92;;
17927;SDS011;9089;58.396;15.544;2022-11-04T02:42:39;10.07;;;4.10;;
17927;SDS011;9089;58.396;15.544;2022-11-04T02:45:09;8.15;;;4.45;;
17927;SDS011;9089;58.396;15.544;2022-11-04T02:47:39;7.55;;;3.85;;
17927;SDS011;9089;58.396;15.544;2022-11-04T02:50:08;12.43;;;4.18;;
17927;SDS011;9089;58.396;15.544;2022-11-04T02:52:38;11.30;;;4.80;;
17927;SDS011;9089;58.396;15.544;2022-11-04T02:55:06;11.27;;;4.80;;
17927;SDS011;9089;58.396;15.544;2022-11-04T02:57:35;8.93;;;4.57;;
17927;SDS011;9089;58.396;15.544;2022-11-04T03:00:02;7.88;;;4.30;;
17927;SDS011;9089;58.396;15.544;2022-11-04T03:02:29;6.60;;;4.28;;
17927;SDS011;9089;58.396;15.544;2022-11-04T03:04:58;10.05;;;4.90;;
17927;SDS011;9089;58.396;15.544;2022-11-04T03:07:25;9.73;;;4.45;;
17927;SDS011;9089;58.396;15.544;2022-11-04T03:09:52;11.20;;;4.75;;
17927;SDS011;9089;58.396;15.544;2022-11-04T03:12:21;9.32;;;4.47;;
17927;SDS011;9089;58.396;15.544;2022-11-04T03:14:51;13.45;;;5.20;;
17927;SDS011;9089;58.396;15.544;2022-11-04T03:17:18;9.40;;;4.80;;
17927;SDS011;9089;58.396;15.544;2022-11-04T03:19:46;5.82;;;4.53;;
17927;SDS011;9089;58.396;15.544;2022-11-04T03:22:15;10.90;;;5.32;;
17927;SDS011;9089;58.396;15.544;2022-11-04T03:24:41;9.35;;;5.57;;
17927;SDS011;9089;58.396;15.544;2022-11-04T03:27:11;9.20;;;5.25;;
17927;SDS011;9089;58.396;15.544;2022-11-04T03:29:38;9.52;;;5.03;;
17927;SDS011;9089;58.396;15.544;2022-11-04T03:32:10;12.48;;;5.50;;
17927;SDS011;9089;58.396;15.544;2022-11-04T03:34:37;13.75;;;5.20;;
17927;SDS011;9089;58.396;15.544;2022-11-04T03:37:03;8.65;;;4.90;;
17927;SDS011;9089;58.396;15.544;2022-11-04T03:39:30;9.77;;;5.50;;
17927;SDS011;9089;58.396;15.544;2022-11-04T03:41:56;13.43;;;6.00;;
17927;SDS011;9089;58.396;15.544;2022-11-04T03:44:22;9.30;;;5.85;;
17927;SDS011;9089;58.396;15.544;2022-11-04T03:46:48;11.32;;;5.97;;
17927;SDS011;9089;58.396;15.544;2022-11-04T03:49:14;11.35;;;5.53;;
17927;SDS011;9089;58.396;15.544;2022-11-04T03:51:40;13.52;;;6.13;;
17927;SDS011;9089;58.396;15.544;2022-11-04T03:54:06;10.25;;;5.72;;
17927;SDS011;9089;58.396;15.544;2022-11-04T03:59:22;8.60;;;5.57;;
17927;SDS011;9089;58.396;15.544;2022-11-04T04:01:53;9.55;;;5.68;;
17927;SDS011;9089;58.396;15.544;2022-11-04T04:04:19;14.85;;;5.70;;
17927;SDS011;9089;58.396;15.544;2022-11-04T04:06:46;11.38;;;5.30;;
17927;SDS011;9089;58.396;15.544;2022-11-04T04:09:17;14.90;;;6.07;;
17927;SDS011;9089;58.396;15.544;2022-11-04T04:11:44;13.68;;;5.50;;
17927;SDS011;9089;58.396;15.544;2022-11-04T04:14:12;12.25;;;5.70;;
17927;SDS011;9089;58.396;15.544;2022-11-04T04:17:01;11.00;;;5.43;;
17927;SDS011;9089;58.396;15.544;2022-11-04T04:19:28;11.70;;;5.38;;
17927;SDS011;9089;58.396;15.544;2022-11-04T04:21:55;15.38;;;6.10;;
17927;SDS011;9089;58.396;15.544;2022-11-04T04:24:24;13.50;;;5.90;;
17927;SDS011;9089;58.396;15.544;2022-11-04T04:27:09;12.15;;;5.55;;
17927;SDS011;9089;58.396;15.544;2022-11-04T04:29:55;16.48;;;6.03;;
17927;SDS011;9089;58.396;15.544;2022-11-04T04:32:22;11.77;;;5.93;;
17927;SDS011;9089;58.396;15.544;2022-11-04T04:34:49;8.45;;;5.45;;
17927;SDS011;9089;58.396;15.544;2022-11-04T04:37:16;9.80;;;6.07;;
17927;SDS011;9089;58.396;15.544;2022-11-04T04:39:44;10.10;;;5.90;;
17927;SDS011;9089;58.396;15.544;2022-11-04T04:42:30;10.90;;;6.13;;
17927;SDS011;9089;58.396;15.544;2022-11-04T04:45:19;16.13;;;7.10;;
17927;SDS011;9089;58.396;15.544;2022-11-04T04:47:47;15.50;;;6.50;;
17927;SDS011;9089;58.396;15.544;2022-11-04T04:50:14;14.90;;;7.13;;
17927;SDS011;9089;58.396;15.544;2022-11-04T04:52:40;18.92;;;6.43;;
17927;SDS011;9089;58.396;15.544;2022-11-04T04:55:06;14.77;;;7.05;;
17927;SDS011;9089;58.396;15.544;2022-11-04T04:57:32;13.75;;;6.70;;
17927;SDS011;9089;58.396;15.544;2022-11-04T04:59:58;15.52;;;6.82;;
17927;SDS011;9089;58.396;15.544;2022-11-04T05:02:23;18.05;;;7.20;;
17927;SDS011;9089;58.396;15.544;2022-11-04T05:04:50;13.68;;;7.25;;
17927;SDS011;9089;58.396;15.544;2022-11-04T05:07:16;16.63;;;6.80;;
17927;SDS011;9089;58.396;15.544;2022-11-04T05:09:42;15.27;;;6.88;;
17927;SDS011;9089;58.396;15.544;2022-11-04T05:12:08;10.10;;;7.10;;
17927;SDS011;9089;58.396;15.544;2022-11-04T05:14:34;16.95;;;8.48;;
17927;SDS011;9089;58.396;15.544;2022-11-04T05:16:59;15.07;;;6.95;;
17927;SDS011;9089;58.396;15.544;2022-11-04T05:19:25;14.45;;;7.20;;
17927;SDS011;9089;58.396;15.544;2022-11-04T05:21:52;15.27;;;7.20;;
17927;SDS011;9089;58.396;15.544;2022-11-04T05:24:17;16.20;;;7.68;;
17927;SDS011;9089;58.396;15.544;2022-11-04T05:26:43;11.52;;;6.88;;
17927;SDS011;9089;58.396;15.544;2022-11-04T05:29:08;14.32;;;6.75;;
17927;SDS011;9089;58.396;15.544;2022-11-04T05:31:34;15.40;;;6.97;;
17927;SDS011;9089;58.396;15.544;2022-11-04T05:33:59;17.20;;;7.25;;
17927;SDS011;9089;58.396;15.544;2022-11-04T05:36:25;12.60;;;6.72;;
17927;SDS011;9089;58.396;15.544;2022-11-04T05:38:52;18.70;;;6.82;;
17927;SDS011;9089;58.396;15.544;2022-11-04T05:41:19;16.95;;;6.55;;
17927;SDS011;9089;58.396;15.544;2022-11-04T05:43:51;14.63;;;6.25;;
17927;SDS011;9089;58.396;15.544;2022-11-04T05:46:17;13.45;;;6.32;;
17927;SDS011;9089;58.396;15.544;2022-11-04T05:48:42;16.45;;;6.47;;
17927;SDS011;9089;58.396;15.544;2022-11-04T05:51:11;8.82;;;5.22;;
17927;SDS011;9089;58.396;15.544;2022-11-04T05:53:36;15.88;;;6.50;;
17927;SDS011;9089;58.396;15.544;2022-11-04T05:56:03;15.32;;;6.90;;
17927;SDS011;9089;58.396;15.544;2022-11-04T05:58:29;14.35;;;6.78;;
17927;SDS011;9089;58.396;15.544;2022-11-04T06:01:08;15.73;;;6.15;;
17927;SDS011;9089;58.396;15.544;2022-11-04T06:03:34;12.57;;;5.20;;
17927;SDS011;9089;58.396;15.544;2022-11-04T06:05:59;10.85;;;5.07;;
17927;SDS011;9089;58.396;15.544;2022-11-04T06:08:25;14.27;;;5.88;;
17927;SDS011;9089;58.396;15.544;2022-11-04T06:10:50;15.23;;;6.07;;
17927;SDS011;9089;58.396;15.544;2022-11-04T06:13:17;11.80;;;5.15;;
17927;SDS011;9089;58.396;15.544;2022-11-04T06:15:42;8.95;;;5.13;;
17927;SDS011;9089;58.396;15.544;2022-11-04T06:18:08;15.82;;;5.22;;
17927;SDS011;9089;58.396;15.544;2022-11-04T06:20:33;13.35;;;5.22;;
17927;SDS011;9089;58.396;15.544;2022-11-04T06:22:59;11.70;;;4.80;;
17927;SDS011;9089;58.396;15.544;2022-11-04T06:25:24;9.70;;;4.88;;
17927;SDS011;9089;58.396;15.544;2022-11-04T06:27:50;15.63;;;5.00;;
17927;SDS011;9089;58.396;15.544;2022-11-04T06:30:17;9.82;;;4.50;;
17927;SDS011;9089;58.396;15.544;2022-11-04T06:32:42;14.45;;;5.07;;
17927;SDS011;9089;58.396;15.544;2022-11-04T06:35:08;9.90;;;4.97;;
17927;SDS011;9089;58.396;15.544;2022-11-04T06:37:33;11.27;;;5.05;;
17927;SDS011;9089;58.396;15.544;2022-11-04T06:39:59;9.98;;;4.22;;
17927;SDS011;9089;58.396;15.544;2022-11-04T06:42:24;16.42;;;4.80;;
17927;SDS011;9089;58.396;15.544;2022-11-04T06:44:51;13.05;;;4.70;;
17927;SDS011;9089;58.396;15.544;2022-11-04T06:47:18;14.63;;;4.72;;
17927;SDS011;9089;58.396;15.544;2022-11-04T06:49:44;11.30;;;4.28;;
17927;SDS011;9089;58.396;15.544;2022-11-04T06:52:09;10.95;;;4.30;;
17927;SDS011;9089;58.396;15.544;2022-11-04T06:54:35;8.48;;;4.18;;
17927;SDS011;9089;58.396;15.544;2022-11-04T06:57:00;8.25;;;4.72;;
17927;SDS011;9089;58.396;15.544;2022-11-04T06:59:27;10.48;;;3.88;;
17927;SDS011;9089;58.396;15.544;2022-11-04T07:01:52;10.88;;;4.55;;
17927;SDS011;9089;58.396;15.544;2022-11-04T07:04:19;8.82;;;3.63;;
17927;SDS011;9089;58.396;15.544;2022-11-04T07:06:44;9.60;;;3.90;;
17927;SDS011;9089;58.396;15.544;2022-11-04T07:09:10;10.52;;;4.63;;
17927;SDS011;9089;58.396;15.544;2022-11-04T07:11:36;14.27;;;4.10;;
17927;SDS011;9089;58.396;15.544;2022-11-04T07:14:02;11.13;;;3.45;;
17927;SDS011;9089;58.396;15.544;2022-11-04T07:16:27;10.55;;;3.60;;
17927;SDS011;9089;58.396;15.544;2022-11-04T07:18:53;9.00;;;4.03;;
17927;SDS011;9089;58.396;15.544;2022-11-04T07:21:20;11.88;;;3.80;;
17927;SDS011;9089;58.396;15.544;2022-11-04T07:23:45;9.13;;;3.28;;
17927;SDS011;9089;58.396;15.544;2022-11-04T07:26:11;9.50;;;3.13;;
17927;SDS011;9089;58.396;15.544;2022-11-04T07:28:37;7.18;;;3.15;;
17927;SDS011;9089;58.396;15.544;2022-11-04T07:31:03;9.35;;;3.42;;
17927;SDS011;9089;58.396;15.544;2022-11-04T07:33:29;11.02;;;3.38;;
17927;SDS011;9089;58.396;15.544;2022-11-04T07:35:54;12.63;;;3.65;;
17927;SDS011;9089;58.396;15.544;2022-11-04T07:38:21;8.18;;;2.80;;
17927;SDS011;9089;58.396;15.544;2022-11-04T07:40:47;8.63;;;3.03;;
17927;SDS011;9089;58.396;15.544;2022-11-04T07:43:12;11.75;;;3.25;;
17927;SDS011;9089;58.396;15.544;2022-11-04T07:45:38;10.02;;;3.10;;
17927;SDS011;9089;58.396;15.544;2022-11-04T07:48:03;11.70;;;3.28;;
17927;SDS011;9089;58.396;15.544;2022-11-04T07:50:29;8.80;;;2.85;;
17927;SDS011;9089;58.396;15.544;2022-11-04T07:52:55;9.52;;;3.05;;
17927;SDS011;9089;58.396;15.544;2022-11-04T07:55:21;9.15;;;2.95;;
17927;SDS011;9089;58.396;15.544;2022-11-04T07:57:47;9.50;;;3.00;;
17927;SDS011;9089;58.396;15.544;2022-11-04T08:00:13;5.95;;;2.72;;
17927;SDS011;9089;58.396;15.544;2022-11-04T08:02:42;12.80;;;3.25;;
17927;SDS011;9089;58.396;15.544;2022-11-04T08:05:11;8.40;;;3.05;;
17927;SDS011;9089;58.396;15.544;2022-11-04T08:07:36;10.25;;;2.85;;
17927;SDS011;9089;58.396;15.544;2022-11-04T08:10:02;10.25;;;2.75;;
17927;SDS011;9089;58.396;15.544;2022-11-04T08:12:29;5.20;;;2.28;;
17927;SDS011;9089;58.396;15.544;2022-11-04T08:14:56;6.60;;;2.28;;
17927;SDS011;9089;58.396;15.544;2022-11-04T08:17:21;8.10;;;3.10;;
17927;SDS011;9089;58.396;15.544;2022-11-04T08:19:47;10.30;;;3.90;;
17927;SDS011;9089;58.396;15.544;2022-11-04T08:22:13;6.90;;;2.38;;
17927;SDS011;9089;58.396;15.544;2022-11-04T08:24:38;8.07;;;2.63;;
17927;SDS011;9089;58.396;15.544;2022-11-04T08:27:04;6.57;;;2.45;;
17927;SDS011;9089;58.396;15.544;2022-11-04T08:29:33;6.50;;;2.85;;
17927;SDS011;9089;58.396;15.544;2022-11-04T08:31:58;6.72;;;2.45;;
17927;SDS011;9089;58.396;15.544;2022-11-04T08:34:24;8.07;;;2.50;;
17927;SDS011;9089;58.396;15.544;2022-11-04T08:36:50;4.60;;;2.35;;
17927;SDS011;9089;58.396;15.544;2022-11-04T08:39:17;8.25;;;2.78;;
17927;SDS011;9089;58.396;15.544;2022-11-04T08:41:43;9.27;;;2.30;;
17927;SDS011;9089;58.396;15.544;2022-11-04T08:44:10;6.07;;;2.10;;
17927;SDS011;9089;58.396;15.544;2022-11-04T08:46:37;5.90;;;2.33;;
17927;SDS011;9089;58.396;15.544;2022-11-04T08:49:03;10.18;;;2.67;;
17927;SDS011;9089;58.396;15.544;2022-11-04T08:51:29;10.75;;;2.72;;
17927;SDS011;9089;58.396;15.544;2022-11-04T08:53:55;9.18;;;2.63;;
17927;SDS011;9089;58.396;15.544;2022-11-04T08:56:22;6.80;;;2.10;;
17927;SDS011;9089;58.396;15.544;2022-11-04T08:58:48;7.07;;;2.50;;
17927;SDS011;9089;58.396;15.544;2022-11-04T09:01:14;10.00;;;2.63;;
17927;SDS011;9089;58.396;15.544;2022-11-04T09:03:41;9.15;;;2.15;;
17927;SDS011;9089;58.396;15.544;2022-11-04T09:06:07;5.43;;;2.67;;
17927;SDS011;9089;58.396;15.544;2022-11-04T09:08:33;7.20;;;2.13;;
17927;SDS011;9089;58.396;15.544;2022-11-04T09:10:58;9.23;;;2.17;;
17927;SDS011;9089;58.396;15.544;2022-11-04T09:13:25;7.10;;;2.28;;
17927;SDS011;9089;58.396;15.544;2022-11-04T09:15:51;5.32;;;2.17;;
17927;SDS011;9089;58.396;15.544;2022-11-04T09:18:16;8.48;;;2.70;;
17927;SDS011;9089;58.396;15.544;2022-11-04T09:20:43;6.60;;;2.03;;
17927;SDS011;9089;58.396;15.544;2022-11-04T09:23:10;5.35;;;2.45;;
17927;SDS011;9089;58.396;15.544;2022-11-04T09:25:35;6.90;;;1.85;;
17927;SDS011;9089;58.396;15.544;2022-11-04T09:28:01;8.25;;;2.53;;
17927;SDS011;9089;58.396;15.544;2022-11-04T09:30:27;7.47;;;2.80;;
17927;SDS011;9089;58.396;15.544;2022-11-04T09:32:52;6.70;;;2.15;;
17927;SDS011;9089;58.396;15.544;2022-11-04T09:35:18;6.55;;;2.20;;
17927;SDS011;9089;58.396;15.544;2022-11-04T09:37:45;4.53;;;1.88;;
17927;SDS011;9089;58.396;15.544;2022-11-04T09:40:11;8.20;;;2.03;;
17927;SDS011;9089;58.396;15.544;2022-11-04T09:42:41;6.63;;;2.22;;
17927;SDS011;9089;58.396;15.544;2022-11-04T09:45:08;8.98;;;2.63;;
17927;SDS011;9089;58.396;15.544;2022-11-04T09:47:35;6.97;;;1.88;;
17927;SDS011;9089;58.396;15.544;2022-11-04T09:50:03;7.10;;;2.03;;
17927;SDS011;9089;58.396;15.544;2022-11-04T09:52:31;6.95;;;2.60;;
17927;SDS011;9089;58.396;15.544;2022-11-04T09:55:00;7.43;;;2.13;;
17927;SDS011;9089;58.396;15.544;2022-11-04T09:57:27;9.75;;;2.25;;
17927;SDS011;9089;58.396;15.544;2022-11-04T09:59:53;3.45;;;1.80;;
17927;SDS011;9089;58.396;15.544;2022-11-04T10:02:28;8.40;;;2.05;;
17927;SDS011;9089;58.396;15.544;2022-11-04T10:04:59;6.57;;;1.85;;
17927;SDS011;9089;58.396;15.544;2022-11-04T10:10:17;6.88;;;2.10;;
17927;SDS011;9089;58.396;15.544;2022-11-04T10:12:47;9.30;;;1.80;;
17927;SDS011;9089;58.396;15.544;2022-11-04T10:15:21;5.30;;;2.10;;
17927;SDS011;9089;58.396;15.544;2022-11-04T10:17:53;9.00;;;1.80;;
17927;SDS011;9089;58.396;15.544;2022-11-04T10:20:27;8.35;;;2.60;;
17927;SDS011;9089;58.396;15.544;2022-11-04T10:22:56;6.47;;;1.98;;
17927;SDS011;9089;58.396;15.544;2022-11-04T10:25:24;6.00;;;1.80;;
17927;SDS011;9089;58.396;15.544;2022-11-04T10:27:51;8.32;;;1.55;;
17927;SDS011;9089;58.396;15.544;2022-11-04T10:30:17;6.85;;;1.73;;
17927;SDS011;9089;58.396;15.544;2022-11-04T10:32:46;7.65;;;1.88;;
17927;SDS011;9089;58.396;15.544;2022-11-04T10:35:18;6.80;;;1.75;;
17927;SDS011;9089;58.396;15.544;2022-11-04T10:37:46;8.80;;;1.90;;
17927;SDS011;9089;58.396;15.544;2022-11-04T10:40:15;9.65;;;2.15;;
17927;SDS011;9089;58.396;15.544;2022-11-04T10:42:43;6.32;;;1.70;;
17927;SDS011;9089;58.396;15.544;2022-11-04T10:45:09;6.22;;;2.20;;
17927;SDS011;9089;58.396;15.544;2022-11-04T10:47:37;8.80;;;1.88;;
17927;SDS011;9089;58.396;15.544;2022-11-04T10:50:15;7.05;;;1.77;;
17927;SDS011;9089;58.396;15.544;2022-11-04T10:52:43;5.13;;;1.88;;
17927;SDS011;9089;58.396;15.544;2022-11-04T10:55:14;5.68;;;1.60;;
17927;SDS011;9089;58.396;15.544;2022-11-04T10:57:40;6.50;;;1.88;;
17927;SDS011;9089;58.396;15.544;2022-11-04T11:00:08;4.65;;;2.00;;
17927;SDS011;9089;58.396;15.544;2022-11-04T11:02:43;5.03;;;1.90;;
17927;SDS011;9089;58.396;15.544;2022-11-04T11:05:14;7.57;;;1.95;;
17927;SDS011;9089;58.396;15.544;2022-11-04T11:07:45;9.20;;;2.00;;
17927;SDS011;9089;58.396;15.544;2022-11-04T11:10:15;7.32;;;1.90;;
17927;SDS011;9089;58.396;15.544;2022-11-04T11:12:41;5.30;;;1.80;;
17927;SDS011;9089;58.396;15.544;2022-11-04T11:15:24;4.85;;;1.73;;
17927;SDS011;9089;58.396;15.544;2022-11-04T11:17:50;9.93;;;2.00;;
17927;SDS011;9089;58.396;15.544;2022-11-04T11:20:18;5.47;;;1.75;;
17927;SDS011;9089;58.396;15.544;2022-11-04T11:22:45;5.30;;;1.60;;
17927;SDS011;9089;58.396;15.544;2022-11-04T11:25:19;4.45;;;1.70;;
17927;SDS011;9089;58.396;15.544;2022-11-04T11:27:46;8.00;;;1.70;;
17927;SDS011;9089;58.396;15.544;2022-11-04T11:30:24;6.75;;;1.80;;
17927;SDS011;9089;58.396;15.544;2022-11-04T11:32:51;6.75;;;2.00;;
17927;SDS011;9089;58.396;15.544;2022-11-04T11:35:18;4.47;;;1.73;;
17927;SDS011;9089;58.396;15.544;2022-11-04T11:37:46;6.45;;;1.90;;
17927;SDS011;9089;58.396;15.544;2022-11-04T11:40:21;4.28;;;1.55;;
17927;SDS011;9089;58.396;15.544;2022-11-04T11:42:48;6.68;;;1.90;;
17927;SDS011;9089;58.396;15.544;2022-11-04T11:45:14;5.78;;;2.03;;
17927;SDS011;9089;58.396;15.544;2022-11-04T11:47:41;6.85;;;2.15;;
17927;SDS011;9089;58.396;15.544;2022-11-04T11:50:13;5.28;;;2.15;;
17927;SDS011;9089;58.396;15.544;2022-11-04T11:52:40;3.25;;;1.58;;
17927;SDS011;9089;58.396;15.544;2022-11-04T11:55:06;7.20;;;2.45;;
17927;SDS011;9089;58.396;15.544;2022-11-04T11:57:38;7.85;;;2.15;;
17927;SDS011;9089;58.396;15.544;2022-11-04T12:00:05;5.57;;;2.13;;
17927;SDS011;9089;58.396;15.544;2022-11-04T12:02:46;6.15;;;2.00;;
17927;SDS011;9089;58.396;15.544;2022-11-04T12:05:14;6.93;;;2.03;;
17927;SDS011;9089;58.396;15.544;2022-11-04T12:07:43;4.50;;;2.00;;
17927;SDS011;9089;58.396;15.544;2022-11-04T12:10:12;4.55;;;2.03;;
17927;SDS011;9089;58.396;15.544;2022-11-04T12:12:48;5.45;;;1.98;;
17927;SDS011;9089;58.396;15.544;2022-11-04T12:15:22;4.70;;;1.80;;
17927;SDS011;9089;58.396;15.544;2022-11-04T12:17:55;4.90;;;1.90;;
17927;SDS011;9089;58.396;15.544;2022-11-04T12:20:27;4.50;;;1.63;;
17927;SDS011;9089;58.396;15.544;2022-11-04T12:22:55;5.72;;;1.75;;
17927;SDS011;9089;58.396;15.544;2022-11-04T12:25:23;8.07;;;2.38;;
17927;SDS011;9089;58.396;15.544;2022-11-04T12:27:53;7.40;;;2.58;;
17927;SDS011;9089;58.396;15.544;2022-11-04T12:30:22;4.85;;;2.40;;
17927;SDS011;9089;58.396;15.544;2022-11-04T12:32:55;4.38;;;1.67;;
17927;SDS011;9089;58.396;15.544;2022-11-04T12:35:26;5.55;;;1.83;;
17927;SDS011;9089;58.396;15.544;2022-11-04T12:37:57;6.07;;;1.88;;
17927;SDS011;9089;58.396;15.544;2022-11-04T12:40:26;4.75;;;1.77;;
17927;SDS011;9089;58.396;15.544;2022-11-04T12:42:56;7.82;;;2.10;;
17927;SDS011;9089;58.396;15.544;2022-11-04T12:45:27;6.22;;;1.50;;
17927;SDS011;9089;58.396;15.544;2022-11-04T12:47:57;11.95;;;2.42;;
17927;SDS011;9089;58.396;15.544;2022-11-04T12:50:31;4.88;;;1.60;;
17927;SDS011;9089;58.396;15.544;2022-11-04T12:53:02;8.15;;;2.28;;
17927;SDS011;9089;58.396;15.544;2022-11-04T12:55:35;9.90;;;2.13;;
17927;SDS011;9089;58.396;15.544;2022-11-04T12:58:10;5.65;;;2.15;;
17927;SDS011;9089;58.396;15.544;2022-11-04T13:00:39;4.72;;;2.25;;
17927;SDS011;9089;58.396;15.544;2022-11-04T13:03:09;6.50;;;1.85;;
17927;SDS011;9089;58.396;15.544;2022-11-04T13:05:39;5.13;;;2.05;;
17927;SDS011;9089;58.396;15.544;2022-11-04T13:08:08;3.45;;;1.75;;
17927;SDS011;9089;58.396;15.544;2022-11-04T13:10:37;4.85;;;1.70;;
17927;SDS011;9089;58.396;15.544;2022-11-04T13:13:04;6.30;;;1.73;;
17927;SDS011;9089;58.396;15.544;2022-11-04T13:15:41;8.55;;;1.73;;
17927;SDS011;9089;58.396;15.544;2022-11-04T13:18:09;5.45;;;1.60;;
17927;SDS011;9089;58.396;15.544;2022-11-04T13:20:38;8.70;;;1.88;;
17927;SDS011;9089;58.396;15.544;2022-11-04T13:23:07;7.25;;;2.00;;
17927;SDS011;9089;58.396;15.544;2022-11-04T13:25:38;4.55;;;1.50;;
17927;SDS011;9089;58.396;15.544;2022-11-04T13:28:04;9.18;;;1.50;;
17927;SDS011;9089;58.396;15.544;2022-11-04T13:30:34;8.30;;;2.00;;
17927;SDS011;9089;58.396;15.544;2022-11-04T13:33:04;4.75;;;1.90;;
17927;SDS011;9089;58.396;15.544;2022-11-04T13:35:36;5.80;;;1.77;;
17927;SDS011;9089;58.396;15.544;2022-11-04T13:38:03;9.35;;;2.10;;
17927;SDS011;9089;58.396;15.544;2022-11-04T13:40:32;8.50;;;1.90;;
17927;SDS011;9089;58.396;15.544;2022-11-04T13:43:03;8.75;;;1.85;;
17927;SDS011;9089;58.396;15.544;2022-11-04T13:45:51;2.85;;;1.75;;
17927;SDS011;9089;58.396;15.544;2022-11-04T13:48:18;6.18;;;2.00;;
17927;SDS011;9089;58.396;15.544;2022-11-04T13:50:46;6.07;;;1.77;;
17927;SDS011;9089;58.396;15.544;2022-11-04T13:53:18;5.20;;;1.75;;
17927;SDS011;9089;58.396;15.544;2022-11-04T13:55:46;4.93;;;1.92;;
17927;SDS011;9089;58.396;15.544;2022-11-04T13:58:15;4.53;;;1.65;;
17927;SDS011;9089;58.396;15.544;2022-11-04T14:00:43;6.88;;;2.00;;
17927;SDS011;9089;58.396;15.544;2022-11-04T14:03:37;4.35;;;1.85;;
17927;SDS011;9089;58.396;15.544;2022-11-04T14:06:06;7.60;;;2.15;;
17927;SDS011;9089;58.396;15.544;2022-11-04T14:08:32;7.28;;;2.00;;
17927;SDS011;9089;58.396;15.544;2022-11-04T14:10:59;6.00;;;2.10;;
17927;SDS011;9089;58.396;15.544;2022-11-04T14:18:58;7.25;;;2.03;;
17927;SDS011;9089;58.396;15.544;2022-11-04T14:24:26;5.47;;;2.08;;
17927;SDS011;9089;58.396;15.544;2022-11-04T14:26:52;4.70;;;1.98;;
17927;SDS011;9089;58.396;15.544;2022-11-04T14:29:19;6.22;;;1.90;;
17927;SDS011;9089;58.396;15.544;2022-11-04T14:31:48;6.15;;;1.95;;
17927;SDS011;9089;58.396;15.544;2022-11-04T14:34:22;6.05;;;2.45;;
17927;SDS011;9089;58.396;15.544;2022-11-04T14:36:48;7.30;;;2.17;;
17927;SDS011;9089;58.396;15.544;2022-11-04T14:39:20;5.38;;;1.90;;
17927;SDS011;9089;58.396;15.544;2022-11-04T14:41:52;6.15;;;2.00;;
17927;SDS011;9089;58.396;15.544;2022-11-04T14:44:19;5.95;;;2.80;;
17927;SDS011;9089;58.396;15.544;2022-11-04T14:46:46;6.25;;;2.38;;
17927;SDS011;9089;58.396;15.544;2022-11-04T14:49:23;4.93;;;2.25;;
17927;SDS011;9089;58.396;15.544;2022-11-04T14:51:52;3.65;;;1.80;;
17927;SDS011;9089;58.396;15.544;2022-11-04T14:54:18;5.15;;;2.60;;
17927;SDS011;9089;58.396;15.544;2022-11-04T14:56:45;6.47;;;1.98;;
17927;SDS011;9089;58.396;15.544;2022-11-04T14:59:19;6.57;;;2.35;;
17927;SDS011;9089;58.396;15.544;2022-11-04T15:01:44;7.65;;;1.98;;
17927;SDS011;9089;58.396;15.544;2022-11-04T15:04:13;5.25;;;1.80;;